createdAt,value
2018-12-01T00:00:39.160Z,2.30
2018-12-01T00:03:07.565Z,1.30
2018-12-01T00:05:35.997Z,2.30
2018-12-01T00:08:04.419Z,2.53
2018-12-01T00:10:32.825Z,2.13
2018-12-01T00:13:01.258Z,2.23
2018-12-01T00:15:30.488Z,2.03
2018-12-01T00:17:59.302Z,1.70
2018-12-01T00:20:29.052Z,2.40
2018-12-01T00:22:57.528Z,1.83
2018-12-01T00:25:25.936Z,3.73
2018-12-01T00:27:54.353Z,2.10
2018-12-01T00:30:23.865Z,2.33
2018-12-01T00:32:52.949Z,2.43
2018-12-01T00:35:21.694Z,2.47
2018-12-01T00:37:50.386Z,2.43
2018-12-01T00:40:20.791Z,2.00
2018-12-01T00:42:49.563Z,2.30
2018-12-01T00:45:19.436Z,1.73
2018-12-01T00:47:49.185Z,1.97
2018-12-01T00:50:19.541Z,2.50
2018-12-01T00:52:48.931Z,2.40
2018-12-01T00:55:18.124Z,1.40
2018-12-01T00:57:46.909Z,2.30
2018-12-01T01:00:16.374Z,2.33
2018-12-01T01:02:50.779Z,2.60
2018-12-01T01:05:19.544Z,1.80
2018-12-01T01:07:48.353Z,1.90
2018-12-01T01:10:16.838Z,1.73
2018-12-01T01:12:45.243Z,1.40
2018-12-01T01:15:13.656Z,1.80
2018-12-01T01:17:42.120Z,1.60
2018-12-01T01:20:11.751Z,2.40
2018-12-01T01:22:40.861Z,0.80
2018-12-01T01:25:10.283Z,1.50
2018-12-01T01:27:38.707Z,1.00
2018-12-01T01:30:25.839Z,2.80
2018-12-01T01:33:05.694Z,1.40
2018-12-01T01:35:34.124Z,1.50
2018-12-01T01:38:02.563Z,3.57
2018-12-01T01:40:31.296Z,1.73
2018-12-01T01:42:59.729Z,2.43
2018-12-01T01:45:28.136Z,1.87
2018-12-01T01:47:56.568Z,1.80
2018-12-01T01:50:24.972Z,2.40
2018-12-01T01:52:53.362Z,1.13
2018-12-01T01:55:22.052Z,0.90
2018-12-01T01:57:50.466Z,2.07
2018-12-01T02:00:20.080Z,1.30
2018-12-01T02:02:49.508Z,2.00
2018-12-01T02:05:19.088Z,1.67
2018-12-01T02:07:47.476Z,2.87
2018-12-01T02:10:16.900Z,1.87
2018-12-01T02:12:45.328Z,1.83
2018-12-01T02:15:14.611Z,2.30
2018-12-01T02:17:43.383Z,1.50
2018-12-01T02:20:14.412Z,2.33
2018-12-01T02:22:43.172Z,2.20
2018-12-01T02:25:12.807Z,2.67
2018-12-01T02:27:41.215Z,3.03
2018-12-01T02:30:12.561Z,1.37
2018-12-01T02:32:41.006Z,1.07
2018-12-01T02:35:15.473Z,1.77
2018-12-01T02:37:43.889Z,1.70
2018-12-01T02:40:13.329Z,1.70
2018-12-01T02:42:42.608Z,0.90
2018-12-01T02:45:22.268Z,2.10
2018-12-01T02:47:50.697Z,1.33
2018-12-01T02:50:23.852Z,0.80
2018-12-01T02:52:53.327Z,1.90
2018-12-01T02:55:21.757Z,0.87
2018-12-01T02:57:50.692Z,1.57
2018-12-01T03:00:19.127Z,2.37
2018-12-01T03:02:47.548Z,1.90
2018-12-01T03:05:15.985Z,1.80
2018-12-01T03:07:44.391Z,2.10
2018-12-01T03:10:13.796Z,1.37
2018-12-01T03:12:42.250Z,1.10
2018-12-01T03:15:12.700Z,1.57
2018-12-01T03:17:41.148Z,2.63
2018-12-01T03:20:11.679Z,1.93
2018-12-01T03:22:40.223Z,2.30
2018-12-01T03:25:09.837Z,2.13
2018-12-01T03:27:38.282Z,0.73
2018-12-01T03:30:09.616Z,1.73
2018-12-01T03:32:38.062Z,1.90
2018-12-01T03:35:12.250Z,1.67
2018-12-01T03:37:43.356Z,1.90
2018-12-01T03:40:12.957Z,1.90
2018-12-01T03:42:41.429Z,2.17
2018-12-01T03:45:11.325Z,1.03
2018-12-01T03:47:39.850Z,1.30
2018-12-01T03:50:10.061Z,1.83
2018-12-01T03:52:38.489Z,2.03
2018-12-01T03:55:17.002Z,2.00
2018-12-01T03:57:45.364Z,1.57
2018-12-01T04:00:13.790Z,1.33
2018-12-01T04:02:42.251Z,2.10
2018-12-01T04:05:11.767Z,2.40
2018-12-01T04:07:40.224Z,0.97
2018-12-01T04:10:08.740Z,1.37
2018-12-01T04:12:37.227Z,1.60
2018-12-01T04:15:06.406Z,1.50
2018-12-01T04:17:35.292Z,1.70
2018-12-01T04:20:04.115Z,2.87
2018-12-01T04:22:32.537Z,2.90
2018-12-01T04:25:00.921Z,2.30
2018-12-01T04:27:29.313Z,1.60
2018-12-01T04:29:58.159Z,1.10
2018-12-01T04:32:26.566Z,1.80
2018-12-01T04:34:54.979Z,2.57
2018-12-01T04:37:23.430Z,1.80
2018-12-01T04:39:51.823Z,2.73
2018-12-01T04:42:20.484Z,2.17
2018-12-01T04:44:48.969Z,1.13
2018-12-01T04:47:17.344Z,1.10
2018-12-01T04:49:45.737Z,2.00
2018-12-01T04:52:14.460Z,2.20
2018-12-01T04:54:42.859Z,2.23
2018-12-01T04:57:11.263Z,2.23
2018-12-01T04:59:39.660Z,2.43
2018-12-01T05:02:08.782Z,1.40
2018-12-01T05:04:37.417Z,2.37
2018-12-01T05:07:06.148Z,3.57
2018-12-01T05:09:34.531Z,2.00
2018-12-01T05:12:02.959Z,1.30
2018-12-01T05:14:31.335Z,1.93
2018-12-01T05:16:59.796Z,2.47
2018-12-01T05:19:28.196Z,1.67
2018-12-01T05:21:56.594Z,2.10
2018-12-01T05:24:24.996Z,3.23
2018-12-01T05:26:53.458Z,2.03
2018-12-01T05:29:21.862Z,1.53
2018-12-01T05:31:50.263Z,2.10
2018-12-01T05:34:18.669Z,2.23
2018-12-01T05:36:47.078Z,2.10
2018-12-01T05:39:15.485Z,1.87
2018-12-01T05:41:43.916Z,2.13
2018-12-01T05:44:12.323Z,2.60
2018-12-01T05:46:40.908Z,2.20
2018-12-01T05:49:09.320Z,1.47
2018-12-01T05:51:37.765Z,1.73
2018-12-01T05:54:06.281Z,2.90
2018-12-01T05:56:34.715Z,2.57
2018-12-01T05:59:03.129Z,2.50
2018-12-01T06:01:31.545Z,2.80
2018-12-01T06:03:59.991Z,1.60
2018-12-01T06:06:28.404Z,1.20
2018-12-01T06:08:57.147Z,1.60
2018-12-01T06:11:25.887Z,2.10
2018-12-01T06:13:54.330Z,1.00
2018-12-01T06:16:22.762Z,2.20
2018-12-01T06:18:51.589Z,1.67
2018-12-01T06:21:20.009Z,2.40
2018-12-01T06:23:48.409Z,1.43
2018-12-01T06:26:16.808Z,3.20
2018-12-01T06:28:45.208Z,2.43
2018-12-01T06:31:13.633Z,3.40
2018-12-01T06:33:42.031Z,2.50
2018-12-01T06:36:10.785Z,1.80
2018-12-01T06:38:39.172Z,1.87
2018-12-01T06:41:08.668Z,2.53
2018-12-01T06:43:37.179Z,2.93
2018-12-01T06:46:06.008Z,3.07
2018-12-01T06:48:34.387Z,1.83
2018-12-01T06:51:02.795Z,1.90
2018-12-01T06:53:31.183Z,1.00
2018-12-01T06:55:59.593Z,1.47
2018-12-01T06:58:27.999Z,1.40
2018-12-01T07:00:57.562Z,1.97
2018-12-01T07:03:26.055Z,0.83
2018-12-01T07:05:54.424Z,2.30
2018-12-01T07:08:22.909Z,2.70
2018-12-01T07:10:51.328Z,2.10
2018-12-01T07:13:19.732Z,1.70
2018-12-01T07:15:48.140Z,2.00
2018-12-01T07:18:27.765Z,2.00
2018-12-01T07:20:56.384Z,1.60
2018-12-01T07:23:25.133Z,0.83
2018-12-01T07:25:53.873Z,1.53
2018-12-01T07:28:22.270Z,1.40
2018-12-01T07:30:50.699Z,1.80
2018-12-01T07:33:19.108Z,1.50
2018-12-01T07:35:47.513Z,1.73
2018-12-01T07:38:15.940Z,2.30
2018-12-01T07:40:44.341Z,1.93
2018-12-01T07:43:12.765Z,1.47
2018-12-01T07:45:41.149Z,2.20
2018-12-01T07:48:09.576Z,1.80
2018-12-01T07:50:37.978Z,1.80
2018-12-01T07:53:06.967Z,2.23
2018-12-01T07:55:35.368Z,2.70
2018-12-01T07:58:03.857Z,1.93
2018-12-01T08:00:32.252Z,0.70
2018-12-01T08:03:00.657Z,1.50
2018-12-01T08:05:29.059Z,2.00
2018-12-01T08:07:57.493Z,2.07
2018-12-01T08:10:25.978Z,2.63
2018-12-01T08:12:54.371Z,2.07
2018-12-01T08:15:22.776Z,2.87
2018-12-01T08:17:51.187Z,2.57
2018-12-01T08:20:19.635Z,3.10
2018-12-01T08:22:48.035Z,3.10
2018-12-01T08:25:18.998Z,2.90
2018-12-01T08:27:49.694Z,2.13
2018-12-01T08:30:19.472Z,2.10
2018-12-01T08:32:47.893Z,3.07
2018-12-01T08:35:16.287Z,3.50
2018-12-01T08:37:44.664Z,4.03
2018-12-01T08:40:14.844Z,3.27
2018-12-01T08:42:43.253Z,2.37
2018-12-01T08:45:11.845Z,2.60
2018-12-01T08:47:40.808Z,3.73
2018-12-01T08:50:13.144Z,2.60
2018-12-01T08:52:41.565Z,4.83
2018-12-01T08:55:13.821Z,2.83
2018-12-01T08:57:42.220Z,3.00
2018-12-01T09:00:17.759Z,3.17
2018-12-01T09:02:48.491Z,2.70
2018-12-01T09:05:16.998Z,2.63
2018-12-01T09:07:45.461Z,2.57
2018-12-01T09:10:13.847Z,2.97
2018-12-01T09:12:42.296Z,3.23
2018-12-01T09:15:12.295Z,3.50
2018-12-01T09:17:41.197Z,3.03
2018-12-01T09:20:10.899Z,3.13
2018-12-01T09:22:43.380Z,2.87
2018-12-01T09:25:14.114Z,1.10
2018-12-01T09:27:42.519Z,1.83
2018-12-01T09:30:14.231Z,1.90
2018-12-01T09:32:42.673Z,1.20
2018-12-01T09:35:11.065Z,2.47
2018-12-01T09:37:39.507Z,1.40
2018-12-01T09:40:09.682Z,3.00
2018-12-01T09:42:38.428Z,1.40
2018-12-01T09:45:10.879Z,1.63
2018-12-01T09:47:39.376Z,1.50
2018-12-01T09:50:11.340Z,2.20
2018-12-01T09:52:39.776Z,1.37
2018-12-01T09:55:16.267Z,0.97
2018-12-01T09:57:45.151Z,1.90
2018-12-01T10:00:15.610Z,2.13
2018-12-01T10:02:44.864Z,2.00
2018-12-01T10:05:16.555Z,1.10
2018-12-01T10:07:45.033Z,1.30
2018-12-01T10:10:14.820Z,2.20
2018-12-01T10:12:43.340Z,1.17
2018-12-01T10:15:15.058Z,1.60
2018-12-01T10:17:43.812Z,2.53
2018-12-01T10:20:14.699Z,2.83
2018-12-01T10:22:43.072Z,1.73
2018-12-01T10:25:12.976Z,1.67
2018-12-01T10:27:41.599Z,1.20
2018-12-01T10:30:16.024Z,1.60
2018-12-01T10:32:44.420Z,1.30
2018-12-01T10:35:15.564Z,1.87
2018-12-01T10:37:45.500Z,1.80
2018-12-01T10:40:13.955Z,1.27
2018-12-01T10:42:42.331Z,2.60
2018-12-01T10:45:16.095Z,2.70
2018-12-01T10:47:45.040Z,1.50
2018-12-01T10:50:19.349Z,2.00
2018-12-01T10:52:49.100Z,2.37
2018-12-01T10:55:32.890Z,0.93
2018-12-01T10:58:12.491Z,1.70
2018-12-01T11:00:47.890Z,1.90
2018-12-01T11:03:21.548Z,1.23
2018-12-01T11:05:50.013Z,2.50
2018-12-01T11:08:18.463Z,0.87
2018-12-01T11:10:47.478Z,2.10
2018-12-01T11:13:15.862Z,1.10
2018-12-01T11:15:44.581Z,1.73
2018-12-01T11:18:13.017Z,1.77
2018-12-01T11:20:41.811Z,0.90
2018-12-01T11:23:10.226Z,1.80
2018-12-01T11:25:39.473Z,1.17
2018-12-01T11:28:08.273Z,1.37
2018-12-01T11:30:40.873Z,2.10
2018-12-01T11:33:09.925Z,1.93
2018-12-01T11:35:38.723Z,1.27
2018-12-01T11:38:08.452Z,0.90
2018-12-01T11:40:36.864Z,1.97
2018-12-01T11:43:06.644Z,1.60
2018-12-01T11:45:35.450Z,1.10
2018-12-01T11:48:03.883Z,1.43
2018-12-01T11:50:32.332Z,1.23
2018-12-01T11:53:00.762Z,1.70
2018-12-01T11:55:29.524Z,1.10
2018-12-01T11:57:57.924Z,1.40
2018-12-01T12:00:27.255Z,1.50
2018-12-01T12:02:56.022Z,1.60
2018-12-01T12:05:24.820Z,1.83
2018-12-01T12:08:04.647Z,1.90
2018-12-01T12:10:33.071Z,1.50
2018-12-01T12:13:01.474Z,1.50
2018-12-01T12:15:30.341Z,2.00
2018-12-01T12:18:02.332Z,1.50
2018-12-01T12:20:31.689Z,0.90
2018-12-01T12:23:00.452Z,1.80
2018-12-01T12:25:28.929Z,2.10
2018-12-01T12:27:57.393Z,1.20
2018-12-01T12:30:26.257Z,1.13
2018-12-01T12:32:55.276Z,1.60
2018-12-01T12:35:23.668Z,1.17
2018-12-01T12:37:52.069Z,2.03
2018-12-01T12:40:22.667Z,0.83
2018-12-01T12:42:52.340Z,1.07
2018-12-01T12:45:20.799Z,1.67
2018-12-01T12:47:49.214Z,2.13
2018-12-01T12:50:19.231Z,1.27
2018-12-01T12:52:50.692Z,1.23
2018-12-01T12:55:23.434Z,1.60
2018-12-01T12:57:52.211Z,2.30
2018-12-01T13:00:22.004Z,1.30
2018-12-01T13:02:58.676Z,1.17
2018-12-01T13:05:28.343Z,1.47
2018-12-01T13:07:56.755Z,1.60
2018-12-01T13:10:25.918Z,1.87
2018-12-01T13:12:54.421Z,1.20
2018-12-01T13:15:22.820Z,0.90
2018-12-01T13:17:51.639Z,1.57
2018-12-01T13:20:21.337Z,0.73
2018-12-01T13:22:51.100Z,0.97
2018-12-01T13:25:19.509Z,1.83
2018-12-01T13:27:51.924Z,2.13
2018-12-01T13:30:22.617Z,1.00
2018-12-01T13:32:51.418Z,1.07
2018-12-01T13:35:20.797Z,1.53
2018-12-01T13:37:49.253Z,1.47
2018-12-01T13:40:18.008Z,1.00
2018-12-01T13:42:46.586Z,2.30
2018-12-01T13:45:16.373Z,1.63
2018-12-01T13:47:45.582Z,1.07
2018-12-01T13:50:16.942Z,0.63
2018-12-01T13:52:47.929Z,1.40
2018-12-01T13:55:16.752Z,1.90
2018-12-01T13:57:45.252Z,2.27
2018-12-01T14:00:16.164Z,0.83
2018-12-01T14:02:44.554Z,1.23
2018-12-01T14:05:13.552Z,1.10
2018-12-01T14:07:43.669Z,1.70
2018-12-01T14:10:17.298Z,2.00
2018-12-01T14:12:46.992Z,1.90
2018-12-01T14:15:16.566Z,1.60
2018-12-01T14:17:45.337Z,1.77
2018-12-01T14:20:15.556Z,1.73
2018-12-01T14:22:45.149Z,1.77
2018-12-01T14:25:14.529Z,1.93
2018-12-01T14:27:47.437Z,1.63
2018-12-01T14:30:16.564Z,2.10
2018-12-01T14:32:45.534Z,1.43
2018-12-01T14:35:21.273Z,0.90
2018-12-01T14:37:51.204Z,1.40
2018-12-01T14:40:19.623Z,1.23
2018-12-01T14:42:48.072Z,1.63
2018-12-01T14:45:17.484Z,0.93
2018-12-01T14:47:45.886Z,1.03
2018-12-01T14:50:15.767Z,1.13
2018-12-01T14:52:45.115Z,1.20
2018-12-01T14:55:17.184Z,1.33
2018-12-01T14:57:46.417Z,0.77
2018-12-01T15:00:20.184Z,0.90
2018-12-01T15:02:49.443Z,0.90
2018-12-01T15:05:17.837Z,1.90
2018-12-01T15:07:47.353Z,1.60
2018-12-01T15:10:19.028Z,0.70
2018-12-01T15:12:47.530Z,1.10
2018-12-01T15:15:18.147Z,1.20
2018-12-01T15:17:46.536Z,1.97
2018-12-01T15:20:16.947Z,1.00
2018-12-01T15:22:47.404Z,1.13
2018-12-01T15:25:22.047Z,1.00
2018-12-01T15:27:50.797Z,1.03
2018-12-01T15:30:22.512Z,0.80
2018-12-01T15:32:59.284Z,0.90
2018-12-01T15:35:28.051Z,0.93
2018-12-01T15:37:56.518Z,0.80
2018-12-01T15:40:25.200Z,1.73
2018-12-01T15:42:53.626Z,1.10
2018-12-01T15:45:22.534Z,0.80
2018-12-01T15:47:50.967Z,1.10
2018-12-01T15:50:20.629Z,1.00
2018-12-01T15:52:51.868Z,1.60
2018-12-01T15:55:20.797Z,0.80
2018-12-01T15:57:49.232Z,0.70
2018-12-01T16:00:26.236Z,0.60
2018-12-01T16:02:54.672Z,0.87
2018-12-01T16:05:24.137Z,1.17
2018-12-01T16:07:56.735Z,0.90
2018-12-01T16:10:25.771Z,1.10
2018-12-01T16:13:01.741Z,0.60
2018-12-01T16:15:34.860Z,1.23
2018-12-01T16:18:03.633Z,0.70
2018-12-01T16:20:32.400Z,0.80
2018-12-01T16:23:00.872Z,0.57
2018-12-01T16:25:29.273Z,1.10
2018-12-01T16:27:58.017Z,1.63
2018-12-01T16:30:34.430Z,1.07
2018-12-01T16:33:04.919Z,1.50
2018-12-01T16:35:33.333Z,1.00
2018-12-01T16:38:02.018Z,2.00
2018-12-01T16:40:45.068Z,1.30
2018-12-01T16:43:14.213Z,1.57
2018-12-01T16:45:43.827Z,0.70
2018-12-01T16:48:12.672Z,0.97
2018-12-01T16:50:41.121Z,2.33
2018-12-01T16:53:11.128Z,1.07
2018-12-01T16:55:39.953Z,2.13
2018-12-01T16:58:08.384Z,1.20
2018-12-01T17:00:37.120Z,2.30
2018-12-01T17:03:05.744Z,1.73
2018-12-01T17:05:37.890Z,1.70
2018-12-01T17:08:07.228Z,1.20
2018-12-01T17:10:36.217Z,1.50
2018-12-01T17:13:05.231Z,2.57
2018-12-01T17:15:33.996Z,2.10
2018-12-01T17:18:02.440Z,0.97
2018-12-01T17:20:30.911Z,2.37
2018-12-01T17:22:59.728Z,1.53
2018-12-01T17:25:28.138Z,1.67
2018-12-01T17:27:58.519Z,1.87
2018-12-01T17:30:29.413Z,0.90
2018-12-01T17:32:59.280Z,1.07
2018-12-01T17:35:28.815Z,0.93
2018-12-01T17:37:58.541Z,0.73
2018-12-01T17:40:36.690Z,1.10
2018-12-01T17:43:07.593Z,2.20
2018-12-01T17:45:36.357Z,1.00
2018-12-01T17:48:05.299Z,1.10
2018-12-01T17:50:34.078Z,1.30
2018-12-01T17:53:02.484Z,1.50
2018-12-01T17:55:31.684Z,1.30
2018-12-01T17:58:00.435Z,1.23
2018-12-01T18:00:29.893Z,1.53
2018-12-01T18:03:02.028Z,0.80
2018-12-01T18:05:33.852Z,0.83
2018-12-01T18:08:02.893Z,1.10
2018-12-01T18:10:31.304Z,0.73
2018-12-01T18:13:00.119Z,1.03
2018-12-01T18:15:28.548Z,0.90
2018-12-01T18:17:57.030Z,1.33
2018-12-01T18:20:25.440Z,0.90
2018-12-01T18:22:56.344Z,1.33
2018-12-01T18:25:24.923Z,1.07
2018-12-01T18:27:55.879Z,1.00
2018-12-01T18:30:41.732Z,1.23
2018-12-01T18:33:12.738Z,1.90
2018-12-01T18:35:41.680Z,0.93
2018-12-01T18:38:11.002Z,1.17
2018-12-01T18:40:39.406Z,1.07
2018-12-01T18:43:08.474Z,0.90
2018-12-01T18:45:37.729Z,1.20
2018-12-01T18:48:06.253Z,0.90
2018-12-01T18:50:34.657Z,0.67
2018-12-01T18:53:09.131Z,0.87
2018-12-01T18:55:43.332Z,0.90
2018-12-01T18:58:11.755Z,1.00
2018-12-01T19:00:59.638Z,1.00
2018-12-01T19:03:30.013Z,1.10
2018-12-01T19:05:58.520Z,0.93
2018-12-01T19:08:26.988Z,1.00
2018-12-01T19:10:55.457Z,0.70
2018-12-01T19:13:23.940Z,0.80
2018-12-01T19:15:52.340Z,1.20
2018-12-01T19:18:20.782Z,0.73
2018-12-01T19:20:49.370Z,0.50
2018-12-01T19:23:18.887Z,0.70
2018-12-01T19:25:48.722Z,1.07
2018-12-01T19:28:17.156Z,0.70
2018-12-01T19:30:45.545Z,0.83
2018-12-01T19:33:19.231Z,1.10
2018-12-01T19:35:48.717Z,1.00
2018-12-01T19:38:21.741Z,1.33
2018-12-01T19:40:50.187Z,0.70
2018-12-01T19:43:18.659Z,1.00
2018-12-01T19:45:47.120Z,1.00
2018-12-01T19:48:15.547Z,0.77
2018-12-01T19:50:44.020Z,1.03
2018-12-01T19:53:13.738Z,1.00
2018-12-01T19:55:42.606Z,0.57
2018-12-01T19:58:14.593Z,1.27
2018-12-01T20:00:44.691Z,0.60
2018-12-01T20:03:17.529Z,0.53
2018-12-01T20:05:45.944Z,0.73
2018-12-01T20:08:15.735Z,0.70
2018-12-01T20:10:48.881Z,1.00
2018-12-01T20:13:26.582Z,0.77
2018-12-01T20:15:58.457Z,0.80
2018-12-01T20:18:27.819Z,0.70
2018-12-01T20:20:56.248Z,0.90
2018-12-01T20:23:25.015Z,1.00
2018-12-01T20:25:53.424Z,0.80
2018-12-01T20:28:21.852Z,0.80
2018-12-01T20:30:50.727Z,0.63
2018-12-01T20:33:19.828Z,1.03
2018-12-01T20:35:54.261Z,0.70
2018-12-01T20:38:30.048Z,0.70
2018-12-01T20:40:58.510Z,0.73
2018-12-01T20:43:26.918Z,0.50
2018-12-01T20:45:55.697Z,0.70
2018-12-01T20:48:24.172Z,0.93
2018-12-01T20:50:52.564Z,0.70
2018-12-01T20:53:21.054Z,0.67
2018-12-01T20:55:52.100Z,0.60
2018-12-01T20:58:20.631Z,0.90
2018-12-01T21:00:49.042Z,0.77
2018-12-01T21:03:17.537Z,0.50
2018-12-01T21:05:46.025Z,0.47
2018-12-01T21:08:14.445Z,0.70
2018-12-01T21:10:46.181Z,0.73
2018-12-01T21:13:14.616Z,0.83
2018-12-01T21:15:43.031Z,0.80
2018-12-01T21:18:11.455Z,0.77
2018-12-01T21:20:39.958Z,0.60
2018-12-01T21:23:08.415Z,0.80
2018-12-01T21:25:36.842Z,0.43
2018-12-01T21:28:05.352Z,0.90
2018-12-01T21:30:33.840Z,0.43
2018-12-01T21:33:06.695Z,0.60
2018-12-01T21:35:35.167Z,0.50
2018-12-01T21:38:03.592Z,0.43
2018-12-01T21:40:32.003Z,0.47
2018-12-01T21:43:00.438Z,0.80
2018-12-01T21:45:28.852Z,0.70
2018-12-01T21:47:57.336Z,0.40
2018-12-01T21:50:26.129Z,0.50
2018-12-01T21:52:55.508Z,0.70
2018-12-01T21:55:24.755Z,0.40
2018-12-01T21:57:54.448Z,0.60
2018-12-01T22:00:25.667Z,0.57
2018-12-01T22:02:55.630Z,0.40
2018-12-01T22:05:30.257Z,0.60
2018-12-01T22:07:58.669Z,0.50
2018-12-01T22:10:27.076Z,0.40
2018-12-01T22:12:55.488Z,0.50
2018-12-01T22:15:24.257Z,0.77
2018-12-01T22:17:52.647Z,0.40
2018-12-01T22:20:22.184Z,0.80
2018-12-01T22:22:51.448Z,0.57
2018-12-01T22:25:20.244Z,0.87
2018-12-01T22:27:49.324Z,0.70
2018-12-01T22:30:21.592Z,0.40
2018-12-01T22:32:52.639Z,0.50
2018-12-01T22:35:23.529Z,0.67
2018-12-01T22:37:52.892Z,0.40
2018-12-01T22:40:23.442Z,0.70
2018-12-01T22:42:57.339Z,0.57
2018-12-01T22:45:26.073Z,0.40
2018-12-01T22:47:54.493Z,0.70
2018-12-01T22:50:23.252Z,0.80
2018-12-01T22:52:52.568Z,0.37
2018-12-01T22:55:23.663Z,0.53
2018-12-01T22:58:24.945Z,0.60
2018-12-01T23:00:56.456Z,0.50
2018-12-01T23:03:26.132Z,0.60
2018-12-01T23:05:54.583Z,0.50
2018-12-01T23:08:24.438Z,0.60
2018-12-01T23:10:53.076Z,0.40
2018-12-01T23:13:21.501Z,0.50
2018-12-01T23:15:49.935Z,0.40
2018-12-01T23:18:19.666Z,0.40
2018-12-01T23:20:49.133Z,0.40
2018-12-01T23:23:17.552Z,0.50
2018-12-01T23:25:46.000Z,0.40
2018-12-01T23:28:14.450Z,0.70
2018-12-01T23:30:47.373Z,0.40
2018-12-01T23:33:20.281Z,0.60
2018-12-01T23:35:49.041Z,0.50
2018-12-01T23:38:17.458Z,0.40
2018-12-01T23:40:46.150Z,0.50
2018-12-01T23:43:14.568Z,0.47
2018-12-01T23:45:44.017Z,0.40
2018-12-01T23:48:12.637Z,0.50
2018-12-01T23:50:42.502Z,0.40
2018-12-01T23:53:14.383Z,0.60
2018-12-01T23:55:42.777Z,0.40
2018-12-01T23:58:11.179Z,0.60
